MiSS Ellie — WDJ2256 — position and weather

sailwx.info

Track history (hours):
 
Tides and Currents Weather Stations Pressure Air Temp Water Temp Dewpoint Dewpoint Depression Visibility Wind Speed Wind Dir Waves Ship Positions

MiSS Ellie

Owner: Magnolia Marine Transportation Company, Vicksburg, MS. More information available from US FCC via Universal Licensing System and Coast Guard Vessel Documentation Center.

Last reported at 2017-Oct-16 16:47 UTC. Time now 2017-Oct-17 04:06 UTC.
Position N 30°03' W 093°39'.

Length 33 m.

Type: Towing. MMSI: 367756630.

Date/timePositionNaut miles runAvg speedWind from/ knotsBaromVisibWave heightAir tempDewpointWater temp
2017-Oct-16 16:47N 30°03' W 093°39'2 5.3
2017-Oct-16 16:28N 30°04' W 093°37'3 5.9
2017-Oct-16 15:59N 30°04' W 093°34'3 5.5
2017-Oct-16 15:27N 30°04' W 093°31'2 5.5
2017-Oct-16 15:00N 30°04' W 093°28'3 5.5
2017-Oct-16 14:30N 30°04' W 093°25'4 4.4
2017-Oct-16 13:30N 30°05' W 093°20'2 4.1
2017-Oct-16 13:00N 30°05' W 093°18'2 4.0
2017-Oct-16 12:30N 30°04' W 093°16'1 1.1
2017-Oct-16 12:00N 30°03' W 093°16'2 4.5
2017-Oct-16 11:30N 30°02' W 093°14'2 4.8
2017-Oct-16 11:00N 29°59' W 093°13'3 5.5
2017-Oct-16 10:30N 29°57' W 093°11'2 5.0
2017-Oct-16 10:00N 29°56' W 093°08'2 5.0
2017-Oct-16 09:30N 29°56' W 093°05'3 5.2
2017-Oct-16 09:00N 29°56' W 093°02'36 4.6
2017-Oct-16 01:18N 29°51' W 092°22'1 4.9
2017-Oct-16 01:00N 29°51' W 092°20'2 4.6
2017-Oct-16 00:30N 29°50' W 092°18'3 5.1
2017-Oct-16 00:00N 29°48' W 092°15'3 6.1
2017-Oct-15 23:30N 29°47' W 092°12'1 2.2
2017-Oct-15 23:00N 29°47' W 092°11'0 0.9
2017-Oct-15 22:30N 29°47' W 092°10'3 5.7
2017-Oct-15 22:00N 29°47' W 092°07'3 5.6
2017-Oct-15 21:30N 29°48' W 092°04'65 2.1
2017-Oct-14 14:19N 30°47' W 091°33'75 5.7
2017-Oct-14 01:10N 31°59' W 091°07'1 8.6
2017-Oct-14 01:00N 31°60' W 091°06'7 7.4
2017-Oct-14 00:06N 32°06' W 091°06'1 8.9
2017-Oct-14 00:00N 32°07' W 091°07'4 8.2
2017-Oct-13 23:30N 32°07' W 091°02'4 8.9
2017-Oct-13 23:00N 32°11' W 090°60'5 9.7
2017-Oct-13 22:30N 32°16' W 090°58'510.1
2017-Oct-13 22:00N 32°20' W 090°54'2 4.2
2017-Oct-13 21:30N 32°21' W 090°53'2 3.2
2017-Oct-13 21:00N 32°23' W 090°53'0 0.0
2017-Oct-13 20:30N 32°23' W 090°53'0 0.0
2017-Oct-13 20:00N 32°23' W 090°53'0 0.0
2017-Oct-13 19:30N 32°23' W 090°53'0 0.1
2017-Oct-13 19:00N 32°23' W 090°53'0 0.0
2017-Oct-13 18:30N 32°23' W 090°53'0 0.0
2017-Oct-13 18:00N 32°23' W 090°53'0 0.0
2017-Oct-13 17:30N 32°23' W 090°53'0 0.0
2017-Oct-13 17:00N 32°23' W 090°53'0 0.1
2017-Oct-13 16:30N 32°23' W 090°53'0 0.1
2017-Oct-13 16:01N 32°23' W 090°53'0 0.2
2017-Oct-13 15:30N 32°23' W 090°53'0 0.5
2017-Oct-13 15:00N 32°23' W 090°53'1 2.8
2017-Oct-13 14:30N 32°21' W 090°53'2 3.8
2017-Oct-13 14:00N 32°20' W 090°54'4 7.7
2017-Oct-13 13:30N 32°17' W 090°57'3 6.7
2017-Oct-13 13:00N 32°14' W 090°59'4 7.2
2017-Oct-13 12:30N 32°10' W 090°60'3 6.7
2017-Oct-13 12:00N 32°07' W 091°01'4 7.0
2017-Oct-13 11:24N 32°08' W 091°06'4 6.2
2017-Oct-13 10:42N 32°04' W 091°04'1 6.5
2017-Oct-13 10:30N 32°03' W 091°04'8 6.5
2017-Oct-13 09:19N 31°58' W 091°11'3 8.4
2017-Oct-13 08:58N 31°55' W 091°12'9 5.5
2017-Oct-13 07:18N 31°51' W 091°21'2 4.9
2017-Oct-13 07:00N 31°49' W 091°21'3 7.1
2017-Oct-13 06:30N 31°46' W 091°22'4 6.9
2017-Oct-13 05:54N 31°42' W 091°24'14 6.7
2017-Oct-13 03:48N 31°29' W 091°31'102 3.4
2017-Oct-11 21:56N 29°50' W 091°58'3 7.3
2017-Oct-11 21:30N 29°49' W 092°01'3 7.0
2017-Oct-11 21:00N 29°48' W 092°05'3 6.8
2017-Oct-11 20:30N 29°47' W 092°08'3 6.8
2017-Oct-11 20:00N 29°47' W 092°12'2 3.8
2017-Oct-11 19:30N 29°48' W 092°14'1 1.7
2017-Oct-11 19:00N 29°48' W 092°15'3 6.2
2017-Oct-11 18:30N 29°50' W 092°18'56 3.0
2017-Oct-11 00:00N 30°04' W 093°21'0 0.0
2017-Oct-10 23:30N 30°04' W 093°21'0 0.0
2017-Oct-10 23:00N 30°04' W 093°21'0 0.0
2017-Oct-10 22:30N 30°04' W 093°21'0 0.0
2017-Oct-10 22:00N 30°04' W 093°21'0 0.0
2017-Oct-10 21:30N 30°04' W 093°21'0 0.0
2017-Oct-10 21:00N 30°04' W 093°21'0 0.0
2017-Oct-10 20:30N 30°04' W 093°21'0 0.0
2017-Oct-10 20:00N 30°04' W 093°21'0 0.0
2017-Oct-10 19:30N 30°04' W 093°21'0 0.0
2017-Oct-10 19:00N 30°04' W 093°21'0 0.0
2017-Oct-10 18:30N 30°04' W 093°21'0 0.0
2017-Oct-10 18:00N 30°04' W 093°21'0 0.0
2017-Oct-10 17:30N 30°04' W 093°21'0 0.0
2017-Oct-10 17:00N 30°04' W 093°21'0 0.0
2017-Oct-10 16:30N 30°04' W 093°21'0 0.0
2017-Oct-10 16:00N 30°04' W 093°21'0 0.0
2017-Oct-10 15:30N 30°04' W 093°21'1 1.9
2017-Oct-10 15:00N 30°04' W 093°20'2 2.2
2017-Oct-10 14:00N 30°06' W 093°19'0 0.1
2017-Oct-10 13:30N 30°06' W 093°19'0 0.0
2017-Oct-10 13:00N 30°06' W 093°19'0 0.0
2017-Oct-10 12:30N 30°06' W 093°19'0 0.0
2017-Oct-10 12:00N 30°06' W 093°19'0 0.0
2017-Oct-10 11:30N 30°06' W 093°19'0 0.0
2017-Oct-10 11:00N 30°06' W 093°19'0 0.0
2017-Oct-10 10:30N 30°06' W 093°19'0 0.0
2017-Oct-10 10:00N 30°06' W 093°19'0 0.3
2017-Oct-10 09:30N 30°06' W 093°19'0 0.1
2017-Oct-10 09:00N 30°06' W 093°19'1 1.0
2017-Oct-10 08:30N 30°06' W 093°19'2 4.3
2017-Oct-10 08:00N 30°04' W 093°21'2 4.6
2017-Oct-10 07:30N 30°04' W 093°24'0 0.0
2017-Oct-10 07:00N 30°04' W 093°24'0 0.0
2017-Oct-10 06:30N 30°04' W 093°24'0 0.0
2017-Oct-10 06:00N 30°04' W 093°24'0 0.0
2017-Oct-10 05:30N 30°04' W 093°24'0 0.0
2017-Oct-10 05:00N 30°04' W 093°24'0 0.1
2017-Oct-10 04:30N 30°04' W 093°24'1 1.9
2017-Oct-10 04:00N 30°04' W 093°25'2 5.0
2017-Oct-10 03:30N 30°04' W 093°28'4 7.2
2017-Oct-10 03:00N 30°04' W 093°32'4 7.4
2017-Oct-10 02:27N 30°04' W 093°37'3 7.5
2017-Oct-10 01:59N 30°04' W 093°41'71 6.2
2017-Oct-09 14:40N 29°30' W 094°52'211.2
2017-Oct-09 14:30N 29°32' W 094°53'510.7
2017-Oct-09 14:00N 29°36' W 094°57'5 9.8
2017-Oct-09 13:30N 29°41' W 094°59'5 8.4
2017-Oct-09 12:57N 29°44' W 095°03'3 1.2
2017-Oct-09 10:43N 29°46' W 095°05'4 7.6
2017-Oct-09 10:13N 29°44' W 095°09'4 7.7
2017-Oct-09 09:42N 29°43' W 095°13'2 5.3
2017-Oct-09 09:23N 29°43' W 095°15'1 0.3
2017-Oct-09 07:15N 29°44' W 095°16'0 0.0
2017-Oct-09 00:57N 29°44' W 095°16'0 0.0
2017-Oct-08 16:54N 29°44' W 095°16'2 4.2
2017-Oct-08 16:29N 29°44' W 095°14'3 6.2
2017-Oct-08 16:00N 29°45' W 095°11'  
Track history (hours):
 
Tides and Currents Weather Stations Pressure Air Temp Water Temp Dewpoint Dewpoint Depression Visibility Wind Speed Wind Dir Waves Ship Positions

MiSS Ellie

Owner: Magnolia Marine Transportation Company, Vicksburg, MS. More information available from US FCC via Universal Licensing System and Coast Guard Vessel Documentation Center.

Last reported at 2017-Oct-16 16:47 UTC. Time now 2017-Oct-17 04:06 UTC.
Position N 30°03' W 093°39'.

Length 33 m.

Type: Towing. MMSI: 367756630.

Date/timePositionNaut miles runAvg speedWind from/ knotsBaromVisibWave heightAir tempDewpointWater temp
2017-Oct-16 16:47N 30°03' W 093°39'2 5.3
2017-Oct-16 16:28N 30°04' W 093°37'3 5.9
2017-Oct-16 15:59N 30°04' W 093°34'3 5.5
2017-Oct-16 15:27N 30°04' W 093°31'2 5.5
2017-Oct-16 15:00N 30°04' W 093°28'3 5.5
2017-Oct-16 14:30N 30°04' W 093°25'4 4.4
2017-Oct-16 13:30N 30°05' W 093°20'2 4.1
2017-Oct-16 13:00N 30°05' W 093°18'2 4.0
2017-Oct-16 12:30N 30°04' W 093°16'1 1.1
2017-Oct-16 12:00N 30°03' W 093°16'2 4.5
2017-Oct-16 11:30N 30°02' W 093°14'2 4.8
2017-Oct-16 11:00N 29°59' W 093°13'3 5.5
2017-Oct-16 10:30N 29°57' W 093°11'2 5.0
2017-Oct-16 10:00N 29°56' W 093°08'2 5.0
2017-Oct-16 09:30N 29°56' W 093°05'3 5.2
2017-Oct-16 09:00N 29°56' W 093°02'36 4.6
2017-Oct-16 01:18N 29°51' W 092°22'1 4.9
2017-Oct-16 01:00N 29°51' W 092°20'2 4.6
2017-Oct-16 00:30N 29°50' W 092°18'3 5.1
2017-Oct-16 00:00N 29°48' W 092°15'3 6.1
2017-Oct-15 23:30N 29°47' W 092°12'1 2.2
2017-Oct-15 23:00N 29°47' W 092°11'0 0.9
2017-Oct-15 22:30N 29°47' W 092°10'3 5.7
2017-Oct-15 22:00N 29°47' W 092°07'3 5.6
2017-Oct-15 21:30N 29°48' W 092°04'65 2.1
2017-Oct-14 14:19N 30°47' W 091°33'75 5.7
2017-Oct-14 01:10N 31°59' W 091°07'1 8.6
2017-Oct-14 01:00N 31°60' W 091°06'7 7.4
2017-Oct-14 00:06N 32°06' W 091°06'1 8.9
2017-Oct-14 00:00N 32°07' W 091°07'4 8.2
2017-Oct-13 23:30N 32°07' W 091°02'4 8.9
2017-Oct-13 23:00N 32°11' W 090°60'5 9.7
2017-Oct-13 22:30N 32°16' W 090°58'510.1
2017-Oct-13 22:00N 32°20' W 090°54'2 4.2
2017-Oct-13 21:30N 32°21' W 090°53'2 3.2
2017-Oct-13 21:00N 32°23' W 090°53'0 0.0
2017-Oct-13 20:30N 32°23' W 090°53'0 0.0
2017-Oct-13 20:00N 32°23' W 090°53'0 0.0
2017-Oct-13 19:30N 32°23' W 090°53'0 0.1
2017-Oct-13 19:00N 32°23' W 090°53'0 0.0
2017-Oct-13 18:30N 32°23' W 090°53'0 0.0
2017-Oct-13 18:00N 32°23' W 090°53'0 0.0
2017-Oct-13 17:30N 32°23' W 090°53'0 0.0
2017-Oct-13 17:00N 32°23' W 090°53'0 0.1
2017-Oct-13 16:30N 32°23' W 090°53'0 0.1
2017-Oct-13 16:01N 32°23' W 090°53'0 0.2
2017-Oct-13 15:30N 32°23' W 090°53'0 0.5
2017-Oct-13 15:00N 32°23' W 090°53'1 2.8
2017-Oct-13 14:30N 32°21' W 090°53'2 3.8
2017-Oct-13 14:00N 32°20' W 090°54'4 7.7
2017-Oct-13 13:30N 32°17' W 090°57'3 6.7
2017-Oct-13 13:00N 32°14' W 090°59'4 7.2
2017-Oct-13 12:30N 32°10' W 090°60'3 6.7
2017-Oct-13 12:00N 32°07' W 091°01'4 7.0
2017-Oct-13 11:24N 32°08' W 091°06'4 6.2
2017-Oct-13 10:42N 32°04' W 091°04'1 6.5
2017-Oct-13 10:30N 32°03' W 091°04'8 6.5
2017-Oct-13 09:19N 31°58' W 091°11'3 8.4
2017-Oct-13 08:58N 31°55' W 091°12'9 5.5
2017-Oct-13 07:18N 31°51' W 091°21'2 4.9
2017-Oct-13 07:00N 31°49' W 091°21'3 7.1
2017-Oct-13 06:30N 31°46' W 091°22'4 6.9
2017-Oct-13 05:54N 31°42' W 091°24'14 6.7
2017-Oct-13 03:48N 31°29' W 091°31'102 3.4
2017-Oct-11 21:56N 29°50' W 091°58'3 7.3
2017-Oct-11 21:30N 29°49' W 092°01'3 7.0
2017-Oct-11 21:00N 29°48' W 092°05'3 6.8
2017-Oct-11 20:30N 29°47' W 092°08'3 6.8
2017-Oct-11 20:00N 29°47' W 092°12'2 3.8
2017-Oct-11 19:30N 29°48' W 092°14'1 1.7
2017-Oct-11 19:00N 29°48' W 092°15'3 6.2
2017-Oct-11 18:30N 29°50' W 092°18'56 3.0
2017-Oct-11 00:00N 30°04' W 093°21'0 0.0
2017-Oct-10 23:30N 30°04' W 093°21'0 0.0
2017-Oct-10 23:00N 30°04' W 093°21'0 0.0
2017-Oct-10 22:30N 30°04' W 093°21'0 0.0
2017-Oct-10 22:00N 30°04' W 093°21'0 0.0
2017-Oct-10 21:30N 30°04' W 093°21'0 0.0
2017-Oct-10 21:00N 30°04' W 093°21'0 0.0
2017-Oct-10 20:30N 30°04' W 093°21'0 0.0
2017-Oct-10 20:00N 30°04' W 093°21'0 0.0
2017-Oct-10 19:30N 30°04' W 093°21'0 0.0
2017-Oct-10 19:00N 30°04' W 093°21'0 0.0
2017-Oct-10 18:30N 30°04' W 093°21'0 0.0
2017-Oct-10 18:00N 30°04' W 093°21'0 0.0
2017-Oct-10 17:30N 30°04' W 093°21'0 0.0
2017-Oct-10 17:00N 30°04' W 093°21'0 0.0
2017-Oct-10 16:30N 30°04' W 093°21'0 0.0
2017-Oct-10 16:00N 30°04' W 093°21'0 0.0
2017-Oct-10 15:30N 30°04' W 093°21'1 1.9
2017-Oct-10 15:00N 30°04' W 093°20'2 2.2
2017-Oct-10 14:00N 30°06' W 093°19'0 0.1
2017-Oct-10 13:30N 30°06' W 093°19'0 0.0
2017-Oct-10 13:00N 30°06' W 093°19'0 0.0
2017-Oct-10 12:30N 30°06' W 093°19'0 0.0
2017-Oct-10 12:00N 30°06' W 093°19'0 0.0
2017-Oct-10 11:30N 30°06' W 093°19'0 0.0
2017-Oct-10 11:00N 30°06' W 093°19'0 0.0
2017-Oct-10 10:30N 30°06' W 093°19'0 0.0
2017-Oct-10 10:00N 30°06' W 093°19'0 0.3
2017-Oct-10 09:30N 30°06' W 093°19'0 0.1
2017-Oct-10 09:00N 30°06' W 093°19'1 1.0
2017-Oct-10 08:30N 30°06' W 093°19'2 4.3
2017-Oct-10 08:00N 30°04' W 093°21'2 4.6
2017-Oct-10 07:30N 30°04' W 093°24'0 0.0
2017-Oct-10 07:00N 30°04' W 093°24'0 0.0
2017-Oct-10 06:30N 30°04' W 093°24'0 0.0
2017-Oct-10 06:00N 30°04' W 093°24'0 0.0
2017-Oct-10 05:30N 30°04' W 093°24'0 0.0
2017-Oct-10 05:00N 30°04' W 093°24'0 0.1
2017-Oct-10 04:30N 30°04' W 093°24'1 1.9
2017-Oct-10 04:00N 30°04' W 093°25'2 5.0
2017-Oct-10 03:30N 30°04' W 093°28'4 7.2
2017-Oct-10 03:00N 30°04' W 093°32'4 7.4
2017-Oct-10 02:27N 30°04' W 093°37'3 7.5
2017-Oct-10 01:59N 30°04' W 093°41'71 6.2
2017-Oct-09 14:40N 29°30' W 094°52'211.2
2017-Oct-09 14:30N 29°32' W 094°53'510.7
2017-Oct-09 14:00N 29°36' W 094°57'5 9.8
2017-Oct-09 13:30N 29°41' W 094°59'5 8.4
2017-Oct-09 12:57N 29°44' W 095°03'3 1.2
2017-Oct-09 10:43N 29°46' W 095°05'4 7.6
2017-Oct-09 10:13N 29°44' W 095°09'4 7.7
2017-Oct-09 09:42N 29°43' W 095°13'2 5.3
2017-Oct-09 09:23N 29°43' W 095°15'1 0.3
2017-Oct-09 07:15N 29°44' W 095°16'0 0.0
2017-Oct-09 00:57N 29°44' W 095°16'0 0.0
2017-Oct-08 16:54N 29°44' W 095°16'2 4.2
2017-Oct-08 16:29N 29°44' W 095°14'3 6.2
2017-Oct-08 16:00N 29°45' W 095°11'  

Dump ship's entire track history